ednb.de Segler
Luftsportverein Zellertal e. V.   
am Flugplatz Arnbruck (EDNB)     
Aktuelles Metar (minütlich - Station EDNB):

METAR EDNB 231256Z 30001G07KT //// ////// 17/08 Q1021=

AKTUELLES WETTER



Großwetterlage


Wetterkarte Legende



Messwerte Station Wettzell



Quelle: Geodätisches Observatorium Wettzell




Wind






Satellitenbild






Satellitenfilm


Satellitenfilm




Regenradar






Blitzkarte






Bayerwaldwebcams



VORHERSAGEN



Vorhersagekarten für Profis


wetter3.de bietet verschiedene Vorhersagekarten verschiedener Wettermodelle



Segelflugwetterbericht


Zu finden hier (direkte Verlinkung verboten): http://www.dwd.de/DE/fachnutzer/luftfahrt/luftfahrt_node.html



dreitagewetter.de


Drei Tage Vorhersage für Arnbruck



Meteogramme






Station Großer Arber






Station Stadt Regen






Weitere Wetterlinks


Regional Atmospheric Soaring Prediction